Terminal Aerodrome Forecast
Issued by NWS Lake Charles, LA

Home | Current Version | Previous Version | Text Only | Print | Product List | Glossary On
Versions: 1 2 3 4 5 6 7 8 9 10 11 12 13 14 15 16 17 18 19
000
FTUS44 KLCH 241137
TAFARA
TAF
KARA 241137Z 2412/2512 12008KT P6SM VCSH BKN035
     FM241400 16014G20KT P6SM VCSH SCT025 BKN035
     FM242000 19018G25KT P6SM VCSH SCT030 BKN050
      TEMPO 2420/2424 VRB20G30KT 2SM +TSRA BKN025CB OVC040
     FM250000 17010G16KT P6SM VCSH SCT050 BKN100
     FM250200 15007KT P6SM SCT120 BKN200=

USA.gov is the U.S. government's official web portal to all federal, state and local government web resources and services.